logo
Search for airport 
image banner adimage banner adimage banner ad
image banner ad

HKIN - Illeret North

Located in , Kenya

ICAO - , IATA -

Data provided by Airmate  

General information

Coordinates: N4°17'49" E36°14'3"
Elevation is 1289 feet MSL.
 
View others Airports in Eastern Province

Operational data

Special qualification required
Current time UTC:
Current local time:
Weather at : - ( 0 km )
METAR: ZMUB 230400Z 30005MPS 9999 SCT033 SCT100 08/M02 Q1002 NOSIG RMK QFE645.9 47 MOP
View NOTAMs / SUP AIP / TFR affecting this airport [VIEW]
Communications frequencies: [VIEW]

Runways:

Airport contact information

Address: Kenya

Satellite view of HKIN